MAPA DE AEROPUERTO

INFORMACIÓN METAR y TAF

METAR FOR VTBD
ADDS - METARS form results

(1715 UTC 07 May 2021)
Data provider http://aviationweather.gov/metar/data/
 
METAR text: VTBD 071700Z 27006KT 9999 FEW020 29/24 Q1011 NOSIG
Conditions at: VTBD (BANGKOK/DON MUAN, TH) observed 1700 UTC 07 May 2021
Temperature: 29.0°C (84°F)
Dewpoint: 24.0°C (75°F) [RH = 74%]
Pressure (altimeter): 29.85 inches Hg (1011.0 mb)
Winds: from the W (270 degrees) at 7 MPH (6 knots; 3.1 m/s)
Visibility: 6 or more miles (10+ km)
Ceiling: at least 12,000 feet AGL
Clouds: few clouds at 2000 feet AGL
Weather: no significant weather observed at this time

METAR text: VTBD 071630Z 30004KT 270V330 9999 FEW020 29/24 Q1011 NOSIG
Conditions at: VTBD (BANGKOK/DON MUAN, TH) observed 1630 UTC 07 May 2021
Temperature: 29.0°C (84°F)
Dewpoint: 24.0°C (75°F) [RH = 74%]
Pressure (altimeter): 29.85 inches Hg (1011.0 mb)
Winds: from the WNW (300 degrees) at 5 MPH (4 knots; 2.1 m/s)
Visibility: 6 or more miles (10+ km)
Ceiling: at least 12,000 feet AGL
Clouds: few clouds at 2000 feet AGL
Weather: no significant weather observed at this time

Forecast for: VTBD (BANGKOK/DON MUAN, TH)
Text: TAF VTBD 071100Z 0712/0818 21005KT 9999 FEW020
Forecast period: 1200 UTC 07 May 2021 to 1800 UTC 08 May 2021
Forecast type: FROM: standard forecast or significant change
Winds: from the SSW (210 degrees) at 6 MPH (5 knots; 2.6 m/s)
Visibility: 6 or more miles (10+ km)
Ceiling: at least 12,000 feet AGL
Clouds: few clouds at 2000 feet AGL
Weather: no significant weather forecast for this period
Text: TEMPO 0806/0812 18010G25KT 4000 TSRA FEW018CB SCT030 BKN100
Forecast period: 0600 to 1200 UTC 08 May 2021
Forecast type: TEMPORARY: The following changes expected for less than half the time period
Winds: from the S (180 degrees) at 12 MPH (10 knots; 5.1 m/s)
gusting to 29 MPH (25 knots; 12.9 m/s)
Visibility: 2.49 miles (4.01 km)
Ceiling: 10000 feet AGL
Clouds: few clouds at 1800 feet AGL
scattered clouds at 3000 feet AGL
broken clouds at 10000 feet AGL
Weather: TSRA  (rain associated with thunderstorm(s))